Time;durP1;ratioP1;P1;durP2;ratioP2;P2;SDS_P1;SDS_P2;PMS_P1;PMS_P2;Temp;Humidity;BMP_temperature;BMP_pressure;BME280_temperature;BME280_humidity;BME280_pressure;Samples;Min_cycle;Max_cycle;Signal;HPM_P1;HPM_P2
2024/02/08 00:00:41;;;;;;;9.90;3.00;;;;;;;2.95;100.00;99156.88;5080622;28;20036;-74
2024/02/08 00:03:10;;;;;;;8.55;2.92;;;;;;;2.95;100.00;99148.91;5097489;28;20054;-74
2024/02/08 00:05:37;;;;;;;7.03;3.45;;;;;;;2.94;100.00;99143.75;5080141;28;20046;-74
2024/02/08 00:08:04;;;;;;;8.30;3.20;;;;;;;2.93;100.00;99139.47;5096846;28;20058;-74
2024/02/08 00:10:30;;;;;;;4.75;2.45;;;;;;;2.91;100.00;99131.69;5096124;28;20038;-74
2024/02/08 00:12:56;;;;;;;8.05;2.92;;;;;;;2.89;100.00;99131.00;5079831;28;20031;-74
2024/02/08 00:15:22;;;;;;;10.98;3.10;;;;;;;2.86;100.00;99118.06;5095963;28;20035;-74
2024/02/08 00:17:48;;;;;;;5.93;2.75;;;;;;;2.84;100.00;99115.56;5079283;28;20047;-74
2024/02/08 00:20:15;;;;;;;6.53;3.17;;;;;;;2.83;100.00;99099.81;5079755;28;20092;-74
2024/02/08 00:22:46;;;;;;;7.03;3.08;;;;;;;2.82;100.00;99098.16;5113680;28;20036;-74
2024/02/08 00:25:12;;;;;;;8.30;3.10;;;;;;;2.84;100.00;99081.06;5079574;28;20027;-74
2024/02/08 00:27:38;;;;;;;8.40;2.65;;;;;;;2.84;100.00;99067.78;5079332;28;20032;-74
2024/02/08 00:30:05;;;;;;;8.77;3.03;;;;;;;2.87;100.00;99061.31;5079461;28;20024;-74
2024/02/08 00:32:32;;;;;;;8.55;3.13;;;;;;;2.88;100.00;99055.00;5096395;28;20027;-75
2024/02/08 00:34:57;;;;;;;5.65;1.98;;;;;;;2.88;100.00;99062.97;5095597;28;20031;-75
2024/02/08 00:37:23;;;;;;;8.80;2.40;;;;;;;2.87;100.00;99061.31;5078887;28;20024;-76
2024/02/08 00:39:49;;;;;;;4.55;1.58;;;;;;;2.87;100.00;99056.00;5079334;28;20038;-74
2024/02/08 00:42:14;;;;;;;3.95;1.73;;;;;;;2.84;100.00;99043.06;5079184;28;20387;-74
2024/02/08 00:44:43;;;;;;;10.48;2.42;;;;;;;2.86;100.00;99041.91;5079007;28;20032;-75
2024/02/08 00:47:10;;;;;;;7.68;1.88;;;;;;;2.85;100.00;99028.78;5079458;28;20476;-75
2024/02/08 00:49:38;;;;;;;7.00;2.33;;;;;;;2.85;100.00;99013.69;5095669;28;20096;-74
2024/02/08 00:52:08;;;;;;;2.65;1.50;;;;;;;2.86;100.00;99002.09;5079412;28;20066;-74
2024/02/08 00:54:35;;;;;;;7.72;2.53;;;;;;;2.86;100.00;98995.97;5079103;28;20353;-74
2024/02/08 00:57:07;;;;;;;1.70;1.23;;;;;;;2.83;100.00;98986.50;5096042;28;20034;-74
2024/02/08 00:59:37;;;;;;;5.95;1.67;;;;;;;2.89;100.00;98968.25;5096787;28;20095;-74
2024/02/08 01:02:05;;;;;;;5.07;1.73;;;;;;;2.93;100.00;98969.56;5078925;28;20499;-74
2024/02/08 01:04:31;;;;;;;6.47;2.20;;;;;;;2.97;100.00;98965.56;5112287;28;20531;-74
2024/02/08 01:06:58;;;;;;;8.43;3.05;;;;;;;3.02;100.00;98947.31;5112373;28;20024;-74
2024/02/08 01:09:27;;;;;;;8.45;2.30;;;;;;;3.05;100.00;98939.00;5079308;28;20032;-74
2024/02/08 01:11:52;;;;;;;6.68;2.22;;;;;;;3.05;100.00;98931.03;5095325;28;20092;-74
2024/02/08 01:14:24;;;;;;;4.97;2.40;;;;;;;3.04;100.00;98916.91;5079129;28;20488;-74
2024/02/08 01:16:50;;;;;;;5.22;2.30;;;;;;;3.03;100.00;98907.28;5079754;28;20071;-74
2024/02/08 01:19:22;;;;;;;7.85;2.17;;;;;;;2.99;100.00;98900.69;5079073;28;20494;-74
2024/02/08 01:21:52;;;;;;;5.95;3.28;;;;;;;2.98;100.00;98891.03;5096120;28;20628;-74
2024/02/08 01:24:20;;;;;;;7.10;2.45;;;;;;;2.96;100.00;98887.72;5078752;28;20032;-75
2024/02/08 01:26:47;;;;;;;6.43;2.20;;;;;;;2.95;100.00;98893.22;5078921;28;20091;-74
2024/02/08 01:29:13;;;;;;;4.03;1.80;;;;;;;2.93;100.00;98892.56;5078922;28;20193;-74
2024/02/08 01:31:38;;;;;;;5.78;2.10;;;;;;;2.89;100.00;98884.13;5078849;28;20058;-75
2024/02/08 01:34:10;;;;;;;5.60;2.45;;;;;;;2.89;100.00;98878.81;5078690;28;20468;-75
2024/02/08 01:36:40;;;;;;;3.70;1.48;;;;;;;2.89;100.00;98856.75;5112201;28;20024;-75
2024/02/08 01:39:07;;;;;;;3.17;1.83;;;;;;;2.86;100.00;98853.44;5078848;28;20031;-75
2024/02/08 01:41:34;;;;;;;4.43;2.00;;;;;;;2.85;100.00;98837.69;5095425;28;20028;-75
2024/02/08 01:44:04;;;;;;;1.52;1.25;;;;;;;2.84;100.00;98828.06;5078459;28;20123;-75
2024/02/08 01:46:38;;;;;;;6.53;2.00;;;;;;;2.85;100.00;98843.00;5095519;28;20471;-75
2024/02/08 01:49:15;;;;;;;6.90;2.08;;;;;;;2.80;100.00;98816.13;5114787;28;20035;-75
2024/02/08 01:51:41;;;;;;;8.73;2.15;;;;;;;2.86;100.00;98804.84;5116289;28;20031;-75
2024/02/08 01:54:09;;;;;;;7.50;2.47;;;;;;;2.87;100.00;98801.19;5082458;28;20077;-75
2024/02/08 01:56:41;;;;;;;9.20;1.88;;;;;;;2.87;100.00;98779.94;5099522;28;20042;-74
2024/02/08 01:59:19;;;;;;;2.25;1.17;;;;;;;2.87;100.00;98779.94;5083321;28;20471;-75
2024/02/08 02:01:56;;;;;;;10.68;2.75;;;;;;;2.89;100.00;98772.63;5116001;28;20376;-75
2024/02/08 02:04:22;;;;;;;6.35;2.38;;;;;;;2.90;100.00;98747.72;5082979;28;20036;-74
2024/02/08 02:06:48;;;;;;;7.47;2.88;;;;;;;2.89;100.00;98746.09;5082125;28;20039;-75
2024/02/08 02:09:27;;;;;;;5.32;1.70;;;;;;;2.90;100.00;98738.94;5082302;28;20039;-75
2024/02/08 02:12:07;;;;;;;3.85;1.73;;;;;;;2.87;100.00;98695.00;5083601;28;20028;-75
2024/02/08 02:14:35;;;;;;;1.10;1.00;;;;;;;2.85;100.00;98703.13;5098986;28;20039;-76
2024/02/08 02:17:18;;;;;;;7.82;2.47;;;;;;;2.88;100.00;98712.56;5098686;28;20027;-75
2024/02/08 02:19:48;;;;;;;1.65;1.45;;;;;;;2.87;100.00;98702.97;5099041;28;20364;-76
2024/02/08 02:22:15;;;;;;;3.50;1.27;;;;;;;2.76;100.00;98668.88;5082268;28;20042;-76
2024/02/08 02:24:42;;;;;;;6.15;1.92;;;;;;;2.87;100.00;98684.38;5115203;28;20047;-76
2024/02/08 02:27:11;;;;;;;4.93;2.00;;;;;;;2.86;100.00;98677.44;5098579;28;20046;-76
2024/02/08 02:29:44;;;;;;;5.18;2.28;;;;;;;2.84;100.00;98674.13;5081857;28;20076;-75
2024/02/08 02:32:20;;;;;;;4.35;1.45;;;;;;;2.85;100.00;98673.94;5082464;28;20035;-75
2024/02/08 02:34:50;;;;;;;3.70;1.90;;;;;;;2.84;100.00;98664.34;5082604;28;20043;-75
2024/02/08 02:37:18;;;;;;;1.83;1.52;;;;;;;2.85;100.00;98647.38;5114907;28;20036;-76
2024/02/08 02:39:44;;;;;;;4.25;1.45;;;;;;;2.85;100.00;98630.66;5098470;28;20062;-76
2024/02/08 02:42:10;;;;;;;2.40;1.42;;;;;;;2.84;100.00;98629.00;5081509;28;20036;-76
2024/02/08 02:44:36;;;;;;;2.53;1.70;;;;;;;2.84;100.00;98613.09;5081536;28;20038;-76
2024/02/08 02:47:05;;;;;;;2.60;1.30;;;;;;;2.85;100.00;98622.69;5098160;28;20032;-76
2024/02/08 02:49:36;;;;;;;3.22;1.10;;;;;;;2.87;100.00;98594.13;5081689;28;20043;-77
2024/02/08 02:52:07;;;;;;;6.15;1.67;;;;;;;2.80;100.00;98580.75;5082029;28;20051;-77
2024/02/08 02:54:36;;;;;;;2.00;1.38;;;;;;;2.86;100.00;98589.84;5098404;28;20035;-77
2024/02/08 02:57:03;;;;;;;4.47;1.75;;;;;;;2.79;100.00;98565.84;5081226;28;20036;-77
2024/02/08 02:59:30;;;;;;;4.88;2.47;;;;;;;2.85;100.00;98561.63;5097817;28;20155;-76
2024/02/08 03:01:56;;;;;;;2.05;1.30;;;;;;;2.85;100.00;98538.56;5081435;28;20486;-75
2024/02/08 03:04:22;;;;;;;5.07;1.67;;;;;;;2.86;100.00;98534.09;5097551;28;20064;-75
2024/02/08 03:06:52;;;;;;;1.08;0.90;;;;;;;2.88;100.00;98534.72;5080929;28;20035;-76
2024/02/08 03:09:23;;;;;;;6.05;1.63;;;;;;;2.88;100.00;98518.81;5098304;28;20475;-76
2024/02/08 03:11:49;;;;;;;3.97;1.63;;;;;;;2.92;100.00;98520.09;5097956;28;20441;-77
2024/02/08 03:14:15;;;;;;;9.27;1.52;;;;;;;2.88;100.00;98494.09;5080936;28;20055;-76
2024/02/08 03:16:42;;;;;;;1.80;1.58;;;;;;;2.94;100.00;98501.31;5114887;28;20446;-76
2024/02/08 03:19:08;;;;;;;2.95;1.70;;;;;;;2.93;100.00;98473.97;5080622;28;20051;-76
2024/02/08 03:21:35;;;;;;;3.22;1.65;;;;;;;2.96;100.00;98473.59;5097480;28;20036;-76
2024/02/08 03:24:07;;;;;;;2.95;2.05;;;;;;;2.95;100.00;98471.13;5115310;28;20023;-76
2024/02/08 03:26:47;;;;;;;7.43;2.35;;;;;;;2.98;100.00;98470.75;5097817;28;20512;-76
2024/02/08 03:29:13;;;;;;;7.10;2.10;;;;;;;2.99;100.00;98464.44;5098835;28;20036;-76
2024/02/08 03:31:47;;;;;;;5.53;2.03;;;;;;;2.99;100.00;98449.34;5080204;28;20063;-76
2024/02/08 03:34:19;;;;;;;5.18;2.33;;;;;;;2.99;100.00;98428.13;5097891;28;20037;-77
2024/02/08 03:36:51;;;;;;;4.05;2.20;;;;;;;2.98;100.00;98420.31;5114358;28;20468;-76
2024/02/08 03:39:25;;;;;;;6.45;2.88;;;;;;;2.98;100.00;98415.84;5080423;28;20104;-77
2024/02/08 03:41:57;;;;;;;2.35;1.60;;;;;;;2.97;100.00;98402.75;5098298;28;20080;-77
2024/02/08 03:44:23;;;;;;;0.45;0.45;;;;;;;3.02;100.00;98385.28;5080209;28;20369;-77
2024/02/08 03:46:53;;;;;;;0.40;0.40;;;;;;;3.01;100.00;98383.59;5080310;28;20035;-76
2024/02/08 03:49:20;;;;;;;0.40;0.40;;;;;;;3.01;100.00;98362.38;5097005;28;20035;-76
2024/02/08 03:51:49;;;;;;;0.45;0.45;;;;;;;3.00;100.00;98350.13;5080200;28;20038;-77
2024/02/08 03:54:19;;;;;;;0.40;0.40;;;;;;;3.04;100.00;98350.56;5080048;28;20027;-76
2024/02/08 03:56:49;;;;;;;0.50;0.50;;;;;;;3.03;100.00;98339.13;5113578;28;20027;-77
2024/02/08 03:59:26;;;;;;;0.50;0.50;;;;;;;3.00;100.00;98330.72;5097292;28;20084;-77
2024/02/08 04:02:06;;;;;;;0.40;0.40;;;;;;;3.02;100.00;98318.09;5098026;28;20592;-77
2024/02/08 04:04:53;;;;;;;0.40;0.40;;;;;;;3.00;100.00;98302.31;5080613;28;20490;-76
2024/02/08 04:10:29;;;;;;;0.40;0.40;;;;;;;3.00;100.00;98288.25;5099459;28;20036;-77
2024/02/08 04:54:32;;;;;;;0.50;0.50;;;;;;;3.03;100.00;98124.09;5113945;28;20027;-81
2024/02/08 04:56:59;;;;;;;0.50;0.50;;;;;;;3.03;100.00;98125.91;5112710;28;20387;-79
2024/02/08 04:59:26;;;;;;;0.50;0.50;;;;;;;3.01;100.00;98123.44;5096269;28;20056;-80
2024/02/08 05:01:55;;;;;;;0.50;0.50;;;;;;;2.99;100.00;98108.72;5079753;28;20035;-79
2024/02/08 05:04:21;;;;;;;0.50;0.50;;;;;;;2.98;100.00;98104.44;5095834;28;20054;-78
2024/02/08 05:06:47;;;;;;;0.47;0.47;;;;;;;2.98;100.00;98101.78;5112476;28;20020;-79
2024/02/08 05:09:19;;;;;;;0.50;0.50;;;;;;;2.96;100.00;98072.78;5079032;28;20058;-81
2024/02/08 05:11:47;;;;;;;0.50;0.50;;;;;;;2.95;100.00;98054.41;5096462;28;20035;-80
2024/02/08 05:14:13;;;;;;;0.50;0.50;;;;;;;2.94;100.00;98080.13;5096112;28;20028;-80
2024/02/08 05:16:39;;;;;;;0.50;0.50;;;;;;;2.95;100.00;98054.41;5095758;28;20046;-80
2024/02/08 05:19:05;;;;;;;4.32;1.80;;;;;;;2.86;100.00;98043.13;5095652;28;20030;-79
2024/02/08 05:21:33;;;;;;;0.50;0.50;;;;;;;2.91;100.00;98038.06;5095106;28;20103;-79
2024/02/08 05:24:03;;;;;;;0.40;0.40;;;;;;;2.92;100.00;98038.88;5082461;28;20092;-79
2024/02/08 05:26:31;;;;;;;0.50;0.50;;;;;;;2.90;100.00;98036.38;5117557;28;20044;-81
2024/02/08 05:28:58;;;;;;;0.40;0.40;;;;;;;2.91;100.00;98032.75;5116440;28;20028;-81
2024/02/08 05:31:26;;;;;;;0.50;0.50;;;;;;;2.82;100.00;98015.31;5082912;28;20368;-81
2024/02/08 05:33:56;;;;;;;0.50;0.50;;;;;;;2.81;100.00;98014.50;5099504;28;20040;-80
2024/02/08 05:36:23;;;;;;;0.50;0.50;;;;;;;2.78;100.00;98017.53;5116271;28;20057;-81
2024/02/08 05:38:52;;;;;;;2.50;2.42;;;;;;;2.81;100.00;98026.94;5100026;28;20479;-79
2024/02/08 05:41:21;;;;;;;0.50;0.50;;;;;;;2.72;100.00;98007.69;5083565;28;20089;-79
2024/02/08 05:43:51;;;;;;;0.50;0.50;;;;;;;2.80;100.00;98027.94;5099702;28;20530;-83
2024/02/08 05:46:28;;;;;;;0.50;0.50;;;;;;;2.78;100.00;98012.22;5082892;28;20035;-80
2024/02/08 05:49:04;;;;;;;0.50;0.50;;;;;;;2.77;100.00;97999.97;5100484;28;20039;-80
2024/02/08 05:51:33;;;;;;;0.50;0.50;;;;;;;2.75;100.00;98004.66;5099782;28;20027;-81
2024/02/08 05:54:02;;;;;;;0.50;0.50;;;;;;;2.71;100.00;97979.53;5116244;28;20035;-82
2024/02/08 05:56:30;;;;;;;0.50;0.50;;;;;;;2.73;100.00;97995.25;5082793;28;20538;-79
2024/02/08 05:59:01;;;;;;;0.50;0.50;;;;;;;2.71;100.00;97990.13;5099418;28;20483;-80
2024/02/08 06:01:31;;;;;;;0.50;0.50;;;;;;;2.68;100.00;97964.00;5099279;28;20027;-79
2024/02/08 06:04:02;;;;;;;0.50;0.50;;;;;;;2.71;100.00;97981.34;5099477;28;20032;-79
2024/02/08 06:06:34;;;;;;;0.50;0.50;;;;;;;2.69;100.00;97970.13;5099755;28;20039;-80
2024/02/08 06:09:08;;;;;;;0.40;0.40;;;;;;;2.72;100.00;97965.22;5115963;28;20020;-79
2024/02/08 06:11:37;;;;;;;0.40;0.40;;;;;;;2.70;100.00;97951.34;5116020;28;20081;-78
2024/02/08 06:14:12;;;;;;;0.50;0.50;;;;;;;2.71;100.00;97954.81;5099177;28;20040;-79
2024/02/08 06:16:47;;;;;;;0.50;0.50;;;;;;;2.69;100.00;97946.22;5083448;28;20480;-83
2024/02/08 06:19:17;;;;;;;0.50;0.50;;;;;;;2.72;100.00;97937.88;5099371;28;20031;-79
2024/02/08 06:21:45;;;;;;;0.50;0.50;;;;;;;2.69;100.00;97944.41;5117040;28;20081;-79
2024/02/08 06:27:13;;;;;;;0.50;0.50;;;;;;;2.63;100.00;97947.84;5115545;28;20070;-80
2024/02/08 06:29:46;;;;;;;0.50;0.50;;;;;;;2.66;100.00;97955.41;5084550;28;20101;-77
2024/02/08 06:35:08;;;;;;;0.50;0.50;;;;;;;2.64;100.00;97914.97;5114784;28;20042;-78
2024/02/08 06:37:44;;;;;;;0.45;0.45;;;;;;;2.63;100.00;97914.16;5082833;28;20063;-81
2024/02/08 06:45:53;;;;;;;0.50;0.50;;;;;;;2.56;100.00;97894.72;5115630;28;20047;-77
2024/02/08 07:37:46;;;;;;;0.50;0.50;;;;;;;2.38;100.00;97844.88;5114252;28;20063;-77
2024/02/08 07:40:23;;;;;;;0.50;0.50;;;;;;;2.35;100.00;97839.09;5097430;28;20031;-76
2024/02/08 07:45:45;;;;;;;0.50;0.50;;;;;;;2.31;100.00;97824.63;5099000;28;20032;-76
2024/02/08 07:48:13;;;;;;;0.50;0.50;;;;;;;2.31;100.00;97840.53;5080113;28;20479;-76
2024/02/08 07:50:46;;;;;;;0.50;0.50;;;;;;;2.30;100.00;97822.97;5113689;28;20476;-76
2024/02/08 07:53:35;;;;;;;2.10;1.50;;;;;;;2.27;100.00;97815.41;5080864;28;20035;-79
2024/02/08 07:56:29;;;;;;;0.50;0.50;;;;;;;2.26;100.00;97811.13;5099507;28;20123;-76
2024/02/08 07:59:06;;;;;;;0.47;0.47;;;;;;;2.22;100.00;97800.06;5099940;28;20433;-76
2024/02/08 08:01:32;;;;;;;0.50;0.50;;;;;;;2.27;100.00;97812.75;5081212;28;20100;-77
2024/02/08 08:04:00;;;;;;;0.50;0.50;;;;;;;2.26;100.00;97808.47;5096606;28;20042;-76
2024/02/08 08:06:34;;;;;;;0.50;0.50;;;;;;;2.27;100.00;97804.81;5079932;28;20038;-77
2024/02/08 08:09:18;;;;;;;0.50;0.50;;;;;;;2.26;100.00;97803.19;5097305;28;20059;-77
2024/02/08 08:11:53;;;;;;;0.50;0.50;;;;;;;2.27;100.00;97796.84;5083145;28;20044;-76
2024/02/08 08:19:44;;;;;;;0.50;0.50;;;;;;;2.28;100.00;97809.91;5112722;28;20039;-76
2024/02/08 08:27:52;;;;;;;0.50;0.50;;;;;;;2.29;100.00;97800.13;5113446;28;20034;-76
2024/02/08 08:30:27;;;;;;;0.50;0.50;;;;;;;2.30;100.00;97804.41;5096032;28;20058;-76
2024/02/08 08:40:49;;;;;;;0.50;0.50;;;;;;;2.32;100.00;97797.06;5112779;28;20031;-76
2024/02/08 08:43:19;;;;;;;0.50;0.50;;;;;;;2.33;100.00;97794.25;5079473;28;20038;-76
2024/02/08 08:46:09;;;;;;;0.50;0.50;;;;;;;2.35;100.00;97789.53;5096636;28;20101;-75
2024/02/08 08:48:35;;;;;;;0.40;0.40;;;;;;;2.36;100.00;97779.78;5096543;28;20028;-76
2024/02/08 08:51:10;;;;;;;0.50;0.50;;;;;;;2.37;100.00;97784.88;5095794;28;20038;-76
2024/02/08 08:53:43;;;;;;;0.50;0.50;;;;;;;2.39;100.00;97785.50;5080155;28;20036;-76
2024/02/08 08:56:14;;;;;;;0.50;0.50;;;;;;;2.40;100.00;97773.06;5096773;28;20039;-76
2024/02/08 08:58:39;;;;;;;0.50;0.50;;;;;;;2.44;100.00;97765.53;5079339;28;20122;-76
2024/02/08 09:01:15;;;;;;;0.50;0.50;;;;;;;2.45;100.00;97765.31;5096520;28;20419;-76
2024/02/08 09:03:42;;;;;;;0.50;0.50;;;;;;;2.48;100.00;97762.28;5096528;28;20054;-76
2024/02/08 09:06:13;;;;;;;0.50;0.50;;;;;;;2.50;100.00;97754.94;5079070;28;20136;-75
2024/02/08 09:08:45;;;;;;;0.50;0.50;;;;;;;2.54;100.00;97758.84;5079501;28;20035;-76
2024/02/08 09:11:13;;;;;;;0.50;0.50;;;;;;;2.57;100.00;97761.09;5096286;28;20487;-76
2024/02/08 09:13:51;;;;;;;0.50;0.50;;;;;;;2.55;100.00;97752.53;5095841;28;20024;-76
2024/02/08 09:21:32;;;;;;;0.50;0.50;;;;;;;2.59;100.00;97751.13;5096590;28;20097;-75
2024/02/08 09:24:03;;;;;;;0.50;0.50;;;;;;;2.64;100.00;97753.16;5096663;28;20050;-75
2024/02/08 09:29:25;;;;;;;0.50;0.50;;;;;;;2.61;100.00;97741.09;5098066;28;20039;-75
2024/02/08 09:31:59;;;;;;;0.45;0.45;;;;;;;2.66;100.00;97748.47;5095946;28;20055;-75
2024/02/08 09:34:58;;;;;;;0.50;0.50;;;;;;;2.70;100.00;97736.47;5064065;28;20139;-75
2024/02/08 09:37:17;;;;;;;0.50;0.50;;;;;;;2.73;100.00;97727.28;5109356;28;20122;-75
2024/02/08 09:42:26;;;;;;;0.50;0.50;;;;;;;2.87;100.00;97723.63;5097534;28;20032;-75
2024/02/08 09:45:41;;;;;;;0.50;0.50;;;;;;;2.89;100.00;97716.28;5111956;28;20027;-75
2024/02/08 09:48:11;;;;;;;0.50;0.50;;;;;;;2.92;100.00;97699.97;5100442;28;20027;-76
2024/02/08 09:50:43;;;;;;;0.50;0.50;;;;;;;2.93;100.00;97706.09;5079838;28;20032;-75
2024/02/08 09:53:17;;;;;;;0.50;0.50;;;;;;;2.97;100.00;97702.84;5079482;28;20039;-75
2024/02/08 09:55:57;;;;;;;0.50;0.50;;;;;;;3.00;100.00;97701.63;5112133;28;20045;-75
2024/02/08 09:58:37;;;;;;;0.50;0.50;;;;;;;3.05;100.00;97675.28;5095363;28;20072;-75
2024/02/08 10:01:33;;;;;;;0.50;0.50;;;;;;;3.11;100.00;97694.88;5111992;28;20027;-75
2024/02/08 10:04:05;;;;;;;0.50;0.50;;;;;;;3.08;100.00;97691.59;5081705;28;20046;-76
2024/02/08 10:06:45;;;;;;;0.50;0.50;;;;;;;3.09;100.00;97692.41;5112125;28;20035;-75
2024/02/08 10:11:59;;;;;;;0.50;0.50;;;;;;;3.11;100.00;97665.69;5101445;28;20119;-75
2024/02/08 10:14:32;;;;;;;0.50;0.50;;;;;;;3.12;100.00;97685.88;5099097;28;20051;-75
2024/02/08 10:17:15;;;;;;;0.50;0.50;;;;;;;3.13;100.00;97672.44;5099475;28;20098;-75
2024/02/08 10:22:53;;;;;;;0.50;0.50;;;;;;;3.26;100.00;97653.84;5107322;28;20046;-75
2024/02/08 10:28:21;;;;;;;0.50;0.50;;;;;;;3.30;100.00;97635.66;5101309;28;20041;-75
2024/02/08 10:30:59;;;;;;;0.50;0.50;;;;;;;3.33;100.00;97632.56;5082409;28;20039;-75
2024/02/08 10:33:35;;;;;;;0.50;0.50;;;;;;;3.36;100.00;97626.88;5115755;28;20040;-74
2024/02/08 10:36:07;;;;;;;0.50;0.50;;;;;;;3.33;100.00;97640.53;5115116;28;20024;-74
2024/02/08 10:38:53;;;;;;;0.40;0.40;;;;;;;3.31;100.00;97639.94;5115466;28;20059;-74
2024/02/08 10:41:27;;;;;;;0.50;0.50;;;;;;;3.41;100.00;97619.06;5100366;28;20055;-74
2024/02/08 10:43:56;;;;;;;0.50;0.50;;;;;;;3.49;100.00;97626.84;5098017;28;20032;-74
2024/02/08 10:46:31;;;;;;;0.50;0.50;;;;;;;3.43;100.00;97630.31;5098336;28;20029;-74
2024/02/08 10:49:10;;;;;;;0.50;0.50;;;;;;;3.36;100.00;97621.56;5082361;28;20084;-74
2024/02/08 10:51:36;;;;;;;0.50;0.50;;;;;;;3.48;100.00;97624.38;5082368;28;20032;-74
2024/02/08 10:54:14;;;;;;;0.50;0.50;;;;;;;3.58;100.00;97632.75;5098182;28;20047;-74
2024/02/08 10:56:44;;;;;;;0.50;0.50;;;;;;;3.62;100.00;97619.84;5082261;28;20131;-74
2024/02/08 10:59:23;;;;;;;0.50;0.50;;;;;;;3.65;100.00;97628.25;5098555;28;20039;-74
2024/02/08 11:04:18;;;;;;;0.50;0.50;;;;;;;3.62;100.00;97615.34;5097990;28;20027;-74
2024/02/08 11:06:55;;;;;;;0.50;0.50;;;;;;;3.59;100.00;97607.00;5114912;28;20110;-74
2024/02/08 11:09:21;;;;;;;0.50;0.50;;;;;;;3.50;100.00;97609.88;5081952;28;20046;-74
2024/02/08 11:11:56;;;;;;;0.50;0.50;;;;;;;3.56;100.00;97612.72;5081009;28;20483;-74
2024/02/08 11:14:22;;;;;;;0.50;0.50;;;;;;;3.62;100.00;97611.88;5082027;28;20036;-74
2024/02/08 11:16:51;;;;;;;0.50;0.50;;;;;;;3.66;100.00;97611.28;5097619;28;20038;-74
2024/02/08 11:19:19;;;;;;;0.50;0.50;;;;;;;3.78;100.00;97608.78;5114743;28;20088;-74
2024/02/08 11:21:49;;;;;;;0.50;0.50;;;;;;;3.93;100.00;97598.69;5081081;28;20096;-74
2024/02/08 11:24:27;;;;;;;0.50;0.50;;;;;;;3.99;100.00;97605.00;5097851;28;20463;-74
2024/02/08 11:27:01;;;;;;;0.50;0.50;;;;;;;4.03;100.00;97589.47;5099019;28;20437;-74
2024/02/08 11:29:28;;;;;;;0.50;0.50;;;;;;;3.97;100.00;97576.00;5081036;28;20134;-74
2024/02/08 11:31:59;;;;;;;0.50;0.50;;;;;;;4.04;100.00;97581.28;5114478;28;20100;-74
2024/02/08 11:34:33;;;;;;;0.50;0.50;;;;;;;4.04;100.00;97580.47;5098063;28;20039;-74
2024/02/08 11:37:13;;;;;;;0.50;0.50;;;;;;;3.97;100.00;97573.34;5098210;28;20032;-74
2024/02/08 11:39:46;;;;;;;0.50;0.50;;;;;;;3.89;100.00;97584.22;5113933;28;20040;-74
2024/02/08 11:42:17;;;;;;;0.50;0.50;;;;;;;3.91;100.00;97560.06;5113998;28;20035;-74
2024/02/08 11:44:44;;;;;;;0.50;0.50;;;;;;;3.92;100.00;97567.84;5097170;28;20040;-74
2024/02/08 11:47:20;;;;;;;0.50;0.50;;;;;;;3.93;100.00;97552.69;5080399;28;20069;-74
2024/02/08 11:49:53;;;;;;;0.50;0.50;;;;;;;4.02;100.00;97563.91;5097269;28;20024;-74
2024/02/08 11:52:20;;;;;;;0.50;0.50;;;;;;;4.02;100.00;97561.25;5080356;28;20027;-74
2024/02/08 11:55:15;;;;;;;0.50;0.50;;;;;;;3.83;100.00;97555.81;5080392;28;20031;-74
2024/02/08 11:57:41;;;;;;;0.50;0.50;;;;;;;3.78;100.00;97549.50;5081487;28;20043;-75
2024/02/08 12:00:15;;;;;;;0.55;0.55;;;;;;;3.85;100.00;97535.16;5097125;28;20039;-74
2024/02/08 12:03:01;;;;;;;;;;;;;;;4.08;100.00;97539.94;5097836;28;20023;-74
2024/02/08 12:05:28;;;;;;;0.57;0.57;;;;;;;4.49;100.00;97528.00;5098119;28;20002;-74
2024/02/08 12:08:08;;;;;;;0.50;0.50;;;;;;;4.70;100.00;97523.34;5113687;28;20024;-74
2024/02/08 12:10:35;;;;;;;0.50;0.50;;;;;;;4.83;100.00;97513.41;5113426;28;20365;-74
2024/02/08 12:13:01;;;;;;;0.50;0.50;;;;;;;4.95;100.00;97508.19;5096590;28;20034;-74
2024/02/08 12:15:28;;;;;;;0.50;0.50;;;;;;;4.84;100.00;97512.41;5080495;28;20023;-74
2024/02/08 12:18:08;;;;;;;0.50;0.50;;;;;;;4.59;100.00;97506.25;5079931;28;20039;-74
2024/02/08 12:20:36;;;;;;;0.50;0.50;;;;;;;4.49;100.00;97503.25;5080104;28;20373;-75
2024/02/08 12:23:02;;;;;;;0.50;0.50;;;;;;;4.38;100.00;97502.13;5080068;28;20036;-74
2024/02/08 12:25:29;;;;;;;0.50;0.50;;;;;;;4.36;100.00;97499.66;5096100;28;20027;-74
2024/02/08 12:28:05;;;;;;;0.50;0.50;;;;;;;4.48;100.00;97497.13;5096151;28;20031;-74
2024/02/08 12:30:34;;;;;;;0.50;0.50;;;;;;;4.57;100.00;97481.69;5096176;28;20023;-74
2024/02/08 12:33:07;;;;;;;0.50;0.50;;;;;;;4.59;100.00;97482.31;5079089;28;20059;-74
2024/02/08 12:35:42;;;;;;;0.50;0.50;;;;;;;4.51;100.00;97483.38;5081658;28;20089;-75
2024/02/08 12:38:11;;;;;;;0.50;0.50;;;;;;;4.34;100.00;97484.94;5113290;28;20039;-74
2024/02/08 12:40:37;;;;;;;0.50;0.50;;;;;;;4.19;100.00;97472.78;5080231;28;20471;-74
2024/02/08 12:43:07;;;;;;;0.40;0.40;;;;;;;4.11;100.00;97474.91;5079315;28;20042;-74
2024/02/08 12:45:34;;;;;;;0.50;0.50;;;;;;;4.11;100.00;97465.06;5079822;28;20028;-74
2024/02/08 12:48:04;;;;;;;0.50;0.50;;;;;;;4.13;100.00;97462.22;5096285;28;20073;-74
2024/02/08 12:50:37;;;;;;;0.50;0.50;;;;;;;4.14;100.00;97467.28;5096519;28;20024;-74
2024/02/08 12:53:19;;;;;;;0.50;0.50;;;;;;;4.14;100.00;97454.00;5097483;28;20165;-74
2024/02/08 12:55:47;;;;;;;0.50;0.50;;;;;;;4.22;100.00;97455.59;5112972;28;20110;-74
2024/02/08 12:58:16;;;;;;;0.50;0.50;;;;;;;4.29;100.00;97443.06;5080252;28;20058;-74
2024/02/08 13:00:45;;;;;;;0.50;0.50;;;;;;;4.32;100.00;97445.28;5113161;28;20519;-74
2024/02/08 13:03:11;;;;;;;0.50;0.50;;;;;;;4.37;100.00;97432.16;5095873;28;20032;-75
2024/02/08 13:05:40;;;;;;;0.50;0.50;;;;;;;4.43;100.00;97427.00;5078637;28;20136;-75
2024/02/08 13:08:07;;;;;;;0.50;0.50;;;;;;;4.44;100.00;97421.44;5095954;28;20035;-76
2024/02/08 13:10:34;;;;;;;0.40;0.40;;;;;;;4.41;100.00;97421.88;5079149;28;20031;-75
2024/02/08 13:13:04;;;;;;;0.50;0.50;;;;;;;4.39;100.00;97416.78;5079120;28;20036;-75
2024/02/08 13:15:34;;;;;;;0.50;0.50;;;;;;;4.33;100.00;97420.31;5079245;28;20110;-74
2024/02/08 13:18:00;;;;;;;0.50;0.50;;;;;;;4.35;100.00;97414.78;5078992;28;20070;-75
2024/02/08 13:20:27;;;;;;;0.50;0.50;;;;;;;4.38;100.00;97407.16;5078843;28;20134;-74
2024/02/08 13:22:54;;;;;;;0.50;0.50;;;;;;;4.45;100.00;97401.78;5096007;28;20047;-74
2024/02/08 13:25:29;;;;;;;0.50;0.50;;;;;;;4.57;100.00;97397.38;5112550;28;20024;-74
2024/02/08 13:27:58;;;;;;;0.50;0.50;;;;;;;4.60;100.00;97399.63;5112438;28;20102;-75
2024/02/08 13:30:29;;;;;;;0.50;0.50;;;;;;;4.56;100.00;97386.97;5079369;28;20043;-75
2024/02/08 13:32:57;;;;;;;0.50;0.50;;;;;;;4.56;100.00;97390.44;5095956;28;20032;-74
2024/02/08 13:35:23;;;;;;;0.40;0.40;;;;;;;4.58;100.00;97390.22;5112786;28;20048;-75
2024/02/08 13:37:53;;;;;;;0.50;0.50;;;;;;;4.61;100.00;97376.47;5095266;28;20040;-75
2024/02/08 13:40:21;;;;;;;0.50;0.50;;;;;;;4.59;100.00;97362.56;5112585;28;20047;-75
2024/02/08 13:42:48;;;;;;;0.50;0.50;;;;;;;4.57;100.00;97356.66;5112469;28;20059;-75
2024/02/08 13:45:14;;;;;;;0.50;0.50;;;;;;;4.54;100.00;97351.78;5080207;28;20036;-75
2024/02/08 13:47:49;;;;;;;0.40;0.40;;;;;;;4.53;100.00;97352.81;5082691;28;20101;-75
2024/02/08 13:50:16;;;;;;;0.50;0.50;;;;;;;4.49;100.00;97338.31;5100080;28;20130;-75
2024/02/08 13:52:42;;;;;;;0.50;0.50;;;;;;;4.48;100.00;97340.16;5082533;28;20475;-76
2024/02/08 13:55:17;;;;;;;0.50;0.50;;;;;;;4.49;100.00;97330.34;5099460;28;20035;-75
2024/02/08 13:57:52;;;;;;;0.50;0.50;;;;;;;4.47;100.00;97314.56;5083686;28;20027;-75
2024/02/08 14:00:20;;;;;;;0.50;0.50;;;;;;;4.50;100.00;97318.66;5099208;28;20524;-76
2024/02/08 14:03:07;;;;;;;0.40;0.40;;;;;;;4.51;100.00;97315.78;5099462;28;20032;-76
2024/02/08 14:05:38;;;;;;;0.50;0.50;;;;;;;4.58;100.00;97311.19;5115752;28;20373;-75
2024/02/08 14:08:06;;;;;;;0.50;0.50;;;;;;;4.71;100.00;97307.59;5083073;28;20039;-76
2024/02/08 14:10:32;;;;;;;0.50;0.50;;;;;;;4.92;100.00;97298.31;5115529;28;20042;-76
2024/02/08 14:12:59;;;;;;;0.50;0.50;;;;;;;5.27;100.00;97290.47;5065574;28;20115;-77
2024/02/08 14:15:31;;;;;;;0.60;0.60;;;;;;;5.83;100.00;97279.56;5098890;28;20059;-76
2024/02/08 14:18:11;;;;;;;0.60;0.60;;;;;;;6.45;100.00;97277.25;5081998;28;20511;-76
2024/02/08 14:20:52;;;;;;;0.60;0.60;;;;;;;6.59;100.00;97281.28;5115443;28;20059;-76